sensor_id;sensor_type;location;lat;lon;timestamp;temperature;humidity
40516;DHT22;26216;53.724;9.898;2022-12-18T00:01:04;-2.90;95.40
40516;DHT22;26216;53.724;9.898;2022-12-18T00:03:34;-2.90;95.40
40516;DHT22;26216;53.724;9.898;2022-12-18T00:06:00;-2.90;95.40
40516;DHT22;26216;53.724;9.898;2022-12-18T00:08:26;-2.90;95.40
40516;DHT22;26216;53.724;9.898;2022-12-18T00:10:52;-2.90;95.40
40516;DHT22;26216;53.724;9.898;2022-12-18T00:13:17;-2.90;95.40
40516;DHT22;26216;53.724;9.898;2022-12-18T00:15:45;-2.90;95.40
40516;DHT22;26216;53.724;9.898;2022-12-18T00:18:11;-3.00;95.40
40516;DHT22;26216;53.724;9.898;2022-12-18T00:20:40;-3.00;95.40
40516;DHT22;26216;53.724;9.898;2022-12-18T00:23:06;-3.00;95.40
40516;DHT22;26216;53.724;9.898;2022-12-18T00:25:36;-3.00;95.40
40516;DHT22;26216;53.724;9.898;2022-12-18T00:28:03;-3.00;95.40
40516;DHT22;26216;53.724;9.898;2022-12-18T00:30:29;-3.00;95.50
40516;DHT22;26216;53.724;9.898;2022-12-18T00:32:55;-3.00;95.50
40516;DHT22;26216;53.724;9.898;2022-12-18T00:35:21;-3.00;95.40
40516;DHT22;26216;53.724;9.898;2022-12-18T00:37:47;-3.00;95.40
40516;DHT22;26216;53.724;9.898;2022-12-18T00:40:13;-3.10;95.30
40516;DHT22;26216;53.724;9.898;2022-12-18T00:42:39;-3.10;95.30
40516;DHT22;26216;53.724;9.898;2022-12-18T00:45:24;-3.10;95.30
40516;DHT22;26216;53.724;9.898;2022-12-18T00:47:51;-3.10;95.30
40516;DHT22;26216;53.724;9.898;2022-12-18T00:50:17;-3.10;95.30
40516;DHT22;26216;53.724;9.898;2022-12-18T00:52:43;-3.10;95.30
40516;DHT22;26216;53.724;9.898;2022-12-18T00:55:10;-3.10;95.40
40516;DHT22;26216;53.724;9.898;2022-12-18T00:57:36;-3.10;95.40
40516;DHT22;26216;53.724;9.898;2022-12-18T01:00:04;-3.10;95.40
40516;DHT22;26216;53.724;9.898;2022-12-18T01:02:30;-3.20;95.40
40516;DHT22;26216;53.724;9.898;2022-12-18T01:04:56;-3.20;95.40
40516;DHT22;26216;53.724;9.898;2022-12-18T01:07:21;-3.20;95.40
40516;DHT22;26216;53.724;9.898;2022-12-18T01:09:47;-3.10;95.40
40516;DHT22;26216;53.724;9.898;2022-12-18T01:12:13;-3.20;95.30
40516;DHT22;26216;53.724;9.898;2022-12-18T01:14:39;-3.20;95.30
40516;DHT22;26216;53.724;9.898;2022-12-18T01:17:05;-3.20;95.30
40516;DHT22;26216;53.724;9.898;2022-12-18T01:19:31;-3.20;95.30
40516;DHT22;26216;53.724;9.898;2022-12-18T01:21:57;-3.20;95.30
40516;DHT22;26216;53.724;9.898;2022-12-18T01:24:23;-3.20;95.40
40516;DHT22;26216;53.724;9.898;2022-12-18T01:26:49;-3.20;95.40
40516;DHT22;26216;53.724;9.898;2022-12-18T01:29:15;-3.20;95.40
40516;DHT22;26216;53.724;9.898;2022-12-18T01:31:41;-3.20;95.70
40516;DHT22;26216;53.724;9.898;2022-12-18T01:34:07;-3.20;95.40
40516;DHT22;26216;53.724;9.898;2022-12-18T01:36:36;-3.20;95.40
40516;DHT22;26216;53.724;9.898;2022-12-18T01:39:06;-3.20;95.40
40516;DHT22;26216;53.724;9.898;2022-12-18T01:41:33;-3.20;95.40
40516;DHT22;26216;53.724;9.898;2022-12-18T01:44:56;-3.30;95.30
40516;DHT22;26216;53.724;9.898;2022-12-18T01:50:06;-3.30;95.40
40516;DHT22;26216;53.724;9.898;2022-12-18T01:52:32;-3.30;95.40
40516;DHT22;26216;53.724;9.898;2022-12-18T01:55:00;-3.30;95.40
40516;DHT22;26216;53.724;9.898;2022-12-18T01:57:28;-3.30;95.40
40516;DHT22;26216;53.724;9.898;2022-12-18T01:59:57;-3.30;95.40
40516;DHT22;26216;53.724;9.898;2022-12-18T02:02:27;-3.30;95.40
40516;DHT22;26216;53.724;9.898;2022-12-18T02:04:54;-3.30;95.40
40516;DHT22;26216;53.724;9.898;2022-12-18T02:10:17;-3.40;95.30
40516;DHT22;26216;53.724;9.898;2022-12-18T02:15:27;-3.30;95.30
40516;DHT22;26216;53.724;9.898;2022-12-18T02:17:56;-3.40;95.30
40516;DHT22;26216;53.724;9.898;2022-12-18T02:20:36;-3.40;95.30
40516;DHT22;26216;53.724;9.898;2022-12-18T02:26:07;-3.40;95.20
40516;DHT22;26216;53.724;9.898;2022-12-18T02:28:47;-3.40;95.20
40516;DHT22;26216;53.724;9.898;2022-12-18T02:31:19;-3.40;95.20
40516;DHT22;26216;53.724;9.898;2022-12-18T02:33:47;-3.40;95.20
40516;DHT22;26216;53.724;9.898;2022-12-18T02:36:16;-3.50;95.20
40516;DHT22;26216;53.724;9.898;2022-12-18T02:38:43;-3.40;95.20
40516;DHT22;26216;53.724;9.898;2022-12-18T02:41:10;-3.50;95.10
40516;DHT22;26216;53.724;9.898;2022-12-18T02:43:37;-3.50;95.10
40516;DHT22;26216;53.724;9.898;2022-12-18T02:46:27;-3.40;95.20
40516;DHT22;26216;53.724;9.898;2022-12-18T02:49:44;-3.50;95.10
40516;DHT22;26216;53.724;9.898;2022-12-18T02:51:57;-3.50;95.10
40516;DHT22;26216;53.724;9.898;2022-12-18T02:54:42;-3.50;95.10
40516;DHT22;26216;53.724;9.898;2022-12-18T03:03:28;-3.50;95.10
40516;DHT22;26216;53.724;9.898;2022-12-18T03:05:37;-3.50;95.10
40516;DHT22;26216;53.724;9.898;2022-12-18T03:08:37;-3.50;95.10
40516;DHT22;26216;53.724;9.898;2022-12-18T03:11:07;-3.50;95.20
40516;DHT22;26216;53.724;9.898;2022-12-18T03:13:48;-3.50;95.20
40516;DHT22;26216;53.724;9.898;2022-12-18T03:16:28;-3.50;95.20
40516;DHT22;26216;53.724;9.898;2022-12-18T03:19:04;-3.50;95.20
40516;DHT22;26216;53.724;9.898;2022-12-18T03:21:43;-3.50;95.20
40516;DHT22;26216;53.724;9.898;2022-12-18T03:24:11;-3.50;95.50
40516;DHT22;26216;53.724;9.898;2022-12-18T03:26:41;-3.50;95.20
40516;DHT22;26216;53.724;9.898;2022-12-18T03:29:14;-3.50;95.20
40516;DHT22;26216;53.724;9.898;2022-12-18T03:31:47;-3.50;95.30
40516;DHT22;26216;53.724;9.898;2022-12-18T03:34:19;-3.50;95.30
40516;DHT22;26216;53.724;9.898;2022-12-18T03:36:47;-3.50;95.20
40516;DHT22;26216;53.724;9.898;2022-12-18T03:39:13;-3.50;95.20
40516;DHT22;26216;53.724;9.898;2022-12-18T03:41:55;-3.50;95.20
40516;DHT22;26216;53.724;9.898;2022-12-18T03:44:31;-3.50;95.10
40516;DHT22;26216;53.724;9.898;2022-12-18T03:49:39;-3.60;95.10
40516;DHT22;26216;53.724;9.898;2022-12-18T03:52:24;-3.60;95.00
40516;DHT22;26216;53.724;9.898;2022-12-18T03:54:53;-3.60;95.00
40516;DHT22;26216;53.724;9.898;2022-12-18T03:57:22;-3.60;95.00
40516;DHT22;26216;53.724;9.898;2022-12-18T03:59:51;-3.60;95.00
40516;DHT22;26216;53.724;9.898;2022-12-18T04:02:21;-3.60;95.00
40516;DHT22;26216;53.724;9.898;2022-12-18T04:04:48;-3.60;95.00
40516;DHT22;26216;53.724;9.898;2022-12-18T04:07:16;-3.60;94.90
40516;DHT22;26216;53.724;9.898;2022-12-18T04:09:43;-3.70;94.80
40516;DHT22;26216;53.724;9.898;2022-12-18T04:12:11;-3.60;94.90
40516;DHT22;26216;53.724;9.898;2022-12-18T04:14:37;-3.70;94.90
40516;DHT22;26216;53.724;9.898;2022-12-18T04:17:03;-3.70;94.90
40516;DHT22;26216;53.724;9.898;2022-12-18T04:19:29;-3.70;94.90
40516;DHT22;26216;53.724;9.898;2022-12-18T04:21:54;-3.70;95.00
40516;DHT22;26216;53.724;9.898;2022-12-18T04:24:20;-3.70;95.00
40516;DHT22;26216;53.724;9.898;2022-12-18T04:26:46;-3.70;95.00
40516;DHT22;26216;53.724;9.898;2022-12-18T04:29:12;-3.70;95.00
40516;DHT22;26216;53.724;9.898;2022-12-18T04:31:38;-3.70;95.00
40516;DHT22;26216;53.724;9.898;2022-12-18T04:34:04;-3.80;95.00
40516;DHT22;26216;53.724;9.898;2022-12-18T04:36:30;-3.70;95.00
40516;DHT22;26216;53.724;9.898;2022-12-18T04:38:56;-3.70;95.00
40516;DHT22;26216;53.724;9.898;2022-12-18T04:41:22;-3.70;95.00
40516;DHT22;26216;53.724;9.898;2022-12-18T04:43:48;-3.80;95.00
40516;DHT22;26216;53.724;9.898;2022-12-18T04:46:13;-3.80;95.10
40516;DHT22;26216;53.724;9.898;2022-12-18T04:48:39;-3.70;95.10
40516;DHT22;26216;53.724;9.898;2022-12-18T04:51:05;-3.80;95.10
40516;DHT22;26216;53.724;9.898;2022-12-18T04:53:32;-3.80;95.00
40516;DHT22;26216;53.724;9.898;2022-12-18T04:56:12;-3.80;95.00
40516;DHT22;26216;53.724;9.898;2022-12-18T04:58:40;-3.80;95.00
40516;DHT22;26216;53.724;9.898;2022-12-18T05:01:07;-3.80;95.00
40516;DHT22;26216;53.724;9.898;2022-12-18T05:03:34;-3.80;95.00
40516;DHT22;26216;53.724;9.898;2022-12-18T05:06:00;-3.80;95.00
40516;DHT22;26216;53.724;9.898;2022-12-18T05:08:26;-3.80;94.90
40516;DHT22;26216;53.724;9.898;2022-12-18T05:10:59;-3.80;94.90
40516;DHT22;26216;53.724;9.898;2022-12-18T05:13:26;-3.80;94.90
40516;DHT22;26216;53.724;9.898;2022-12-18T05:15:52;-3.90;94.80
40516;DHT22;26216;53.724;9.898;2022-12-18T05:18:18;-3.90;94.80
40516;DHT22;26216;53.724;9.898;2022-12-18T05:20:44;-3.80;94.80
40516;DHT22;26216;53.724;9.898;2022-12-18T05:23:09;-3.90;94.70
40516;DHT22;26216;53.724;9.898;2022-12-18T05:25:35;-3.90;94.80
40516;DHT22;26216;53.724;9.898;2022-12-18T05:28:01;-3.90;94.80
40516;DHT22;26216;53.724;9.898;2022-12-18T05:30:27;-3.90;94.80
40516;DHT22;26216;53.724;9.898;2022-12-18T05:32:53;-3.90;94.80
40516;DHT22;26216;53.724;9.898;2022-12-18T05:35:19;-3.90;94.90
40516;DHT22;26216;53.724;9.898;2022-12-18T05:37:45;-3.90;94.90
40516;DHT22;26216;53.724;9.898;2022-12-18T05:40:12;-3.90;95.00
40516;DHT22;26216;53.724;9.898;2022-12-18T05:42:38;-4.00;95.00
40516;DHT22;26216;53.724;9.898;2022-12-18T05:45:05;-4.00;95.10
40516;DHT22;26216;53.724;9.898;2022-12-18T05:47:31;-3.90;95.10
40516;DHT22;26216;53.724;9.898;2022-12-18T05:49:56;-4.00;95.10
40516;DHT22;26216;53.724;9.898;2022-12-18T05:52:23;-3.90;95.20
40516;DHT22;26216;53.724;9.898;2022-12-18T05:54:49;-4.00;95.20
40516;DHT22;26216;53.724;9.898;2022-12-18T05:57:14;-4.00;95.20
40516;DHT22;26216;53.724;9.898;2022-12-18T05:59:40;-3.90;95.20
40516;DHT22;26216;53.724;9.898;2022-12-18T06:02:06;-3.90;95.20
40516;DHT22;26216;53.724;9.898;2022-12-18T06:04:32;-4.00;95.20
40516;DHT22;26216;53.724;9.898;2022-12-18T06:06:58;-4.00;95.20
40516;DHT22;26216;53.724;9.898;2022-12-18T06:09:24;-3.90;95.30
40516;DHT22;26216;53.724;9.898;2022-12-18T06:11:51;-3.90;95.20
40516;DHT22;26216;53.724;9.898;2022-12-18T06:14:18;-4.00;95.20
40516;DHT22;26216;53.724;9.898;2022-12-18T06:16:44;-3.90;95.20
40516;DHT22;26216;53.724;9.898;2022-12-18T06:19:14;-4.00;95.20
40516;DHT22;26216;53.724;9.898;2022-12-18T06:21:41;-4.00;95.10
40516;DHT22;26216;53.724;9.898;2022-12-18T06:24:07;-4.00;95.10
40516;DHT22;26216;53.724;9.898;2022-12-18T06:26:33;-4.00;95.10
40516;DHT22;26216;53.724;9.898;2022-12-18T06:28:59;-4.00;95.10
40516;DHT22;26216;53.724;9.898;2022-12-18T06:31:25;-4.00;95.10
40516;DHT22;26216;53.724;9.898;2022-12-18T06:33:51;-4.00;95.10
40516;DHT22;26216;53.724;9.898;2022-12-18T06:36:17;-4.00;95.10
40516;DHT22;26216;53.724;9.898;2022-12-18T06:38:43;-4.00;95.20
40516;DHT22;26216;53.724;9.898;2022-12-18T06:41:14;-4.00;95.20
40516;DHT22;26216;53.724;9.898;2022-12-18T06:43:40;-4.00;95.10
40516;DHT22;26216;53.724;9.898;2022-12-18T06:46:06;-4.00;95.10
40516;DHT22;26216;53.724;9.898;2022-12-18T06:48:32;-4.00;95.20
40516;DHT22;26216;53.724;9.898;2022-12-18T06:50:58;-4.00;95.20
40516;DHT22;26216;53.724;9.898;2022-12-18T06:53:24;-4.00;95.20
40516;DHT22;26216;53.724;9.898;2022-12-18T06:55:51;-4.00;95.20
40516;DHT22;26216;53.724;9.898;2022-12-18T06:58:17;-4.00;95.30
40516;DHT22;26216;53.724;9.898;2022-12-18T07:00:43;-4.00;95.30
40516;DHT22;26216;53.724;9.898;2022-12-18T07:03:08;-4.00;95.30
40516;DHT22;26216;53.724;9.898;2022-12-18T07:05:34;-4.00;95.30
40516;DHT22;26216;53.724;9.898;2022-12-18T07:08:04;-4.00;95.40
40516;DHT22;26216;53.724;9.898;2022-12-18T07:10:30;-4.00;95.40
40516;DHT22;26216;53.724;9.898;2022-12-18T07:12:56;-4.00;95.40
40516;DHT22;26216;53.724;9.898;2022-12-18T07:15:22;-4.00;95.40
40516;DHT22;26216;53.724;9.898;2022-12-18T07:17:48;-4.00;95.40
40516;DHT22;26216;53.724;9.898;2022-12-18T07:20:13;-4.00;95.40
40516;DHT22;26216;53.724;9.898;2022-12-18T07:22:39;-4.00;95.40
40516;DHT22;26216;53.724;9.898;2022-12-18T07:25:06;-4.00;95.40
40516;DHT22;26216;53.724;9.898;2022-12-18T07:27:32;-4.00;95.30
40516;DHT22;26216;53.724;9.898;2022-12-18T07:29:57;-4.00;95.40
40516;DHT22;26216;53.724;9.898;2022-12-18T07:32:23;-4.00;95.40
40516;DHT22;26216;53.724;9.898;2022-12-18T07:34:49;-4.00;95.40
40516;DHT22;26216;53.724;9.898;2022-12-18T07:37:15;-4.00;95.40
40516;DHT22;26216;53.724;9.898;2022-12-18T07:39:41;-4.00;95.30
40516;DHT22;26216;53.724;9.898;2022-12-18T07:42:06;-4.00;95.30
40516;DHT22;26216;53.724;9.898;2022-12-18T07:44:51;-4.00;95.30
40516;DHT22;26216;53.724;9.898;2022-12-18T07:47:16;-4.00;95.30
40516;DHT22;26216;53.724;9.898;2022-12-18T07:49:42;-4.00;95.40
40516;DHT22;26216;53.724;9.898;2022-12-18T07:52:08;-4.00;95.40
40516;DHT22;26216;53.724;9.898;2022-12-18T07:54:35;-4.00;95.40
40516;DHT22;26216;53.724;9.898;2022-12-18T07:57:00;-4.00;95.40
40516;DHT22;26216;53.724;9.898;2022-12-18T07:59:26;-4.00;95.50
40516;DHT22;26216;53.724;9.898;2022-12-18T08:01:52;-4.00;95.50
40516;DHT22;26216;53.724;9.898;2022-12-18T08:04:18;-3.90;95.60
40516;DHT22;26216;53.724;9.898;2022-12-18T08:06:44;-3.90;95.60
40516;DHT22;26216;53.724;9.898;2022-12-18T08:09:10;-3.90;95.60
40516;DHT22;26216;53.724;9.898;2022-12-18T08:11:36;-3.90;95.70
40516;DHT22;26216;53.724;9.898;2022-12-18T08:14:02;-3.90;95.70
40516;DHT22;26216;53.724;9.898;2022-12-18T08:16:28;-3.80;95.70
40516;DHT22;26216;53.724;9.898;2022-12-18T08:18:57;-3.80;95.70
40516;DHT22;26216;53.724;9.898;2022-12-18T08:21:28;-3.80;95.70
40516;DHT22;26216;53.724;9.898;2022-12-18T08:23:56;-3.70;95.80
40516;DHT22;26216;53.724;9.898;2022-12-18T08:26:24;-3.70;95.80
40516;DHT22;26216;53.724;9.898;2022-12-18T08:28:51;-3.70;95.90
40516;DHT22;26216;53.724;9.898;2022-12-18T08:31:17;-3.70;95.90
40516;DHT22;26216;53.724;9.898;2022-12-18T08:33:43;-3.60;96.00
40516;DHT22;26216;53.724;9.898;2022-12-18T08:36:10;-3.60;96.00
40516;DHT22;26216;53.724;9.898;2022-12-18T08:38:36;-3.50;96.10
40516;DHT22;26216;53.724;9.898;2022-12-18T08:41:04;-3.50;96.20
40516;DHT22;26216;53.724;9.898;2022-12-18T08:43:30;-3.40;96.20
40516;DHT22;26216;53.724;9.898;2022-12-18T08:46:14;-3.40;96.30
40516;DHT22;26216;53.724;9.898;2022-12-18T08:48:40;-3.40;96.30
40516;DHT22;26216;53.724;9.898;2022-12-18T08:51:06;-3.30;96.30
40516;DHT22;26216;53.724;9.898;2022-12-18T08:53:32;-3.30;96.30
40516;DHT22;26216;53.724;9.898;2022-12-18T08:55:58;-3.20;96.30
40516;DHT22;26216;53.724;9.898;2022-12-18T08:58:24;-3.20;96.40
40516;DHT22;26216;53.724;9.898;2022-12-18T09:00:49;-3.20;96.40
40516;DHT22;26216;53.724;9.898;2022-12-18T09:03:18;-3.10;96.40
40516;DHT22;26216;53.724;9.898;2022-12-18T09:05:46;-3.10;96.40
40516;DHT22;26216;53.724;9.898;2022-12-18T09:08:12;-3.00;96.40
40516;DHT22;26216;53.724;9.898;2022-12-18T09:10:42;-3.00;96.40
40516;DHT22;26216;53.724;9.898;2022-12-18T09:13:10;-2.90;96.50
40516;DHT22;26216;53.724;9.898;2022-12-18T09:15:51;-2.90;96.50
40516;DHT22;26216;53.724;9.898;2022-12-18T09:18:19;-2.80;96.50
40516;DHT22;26216;53.724;9.898;2022-12-18T09:20:45;-2.80;96.50
40516;DHT22;26216;53.724;9.898;2022-12-18T09:23:12;-2.70;96.50
40516;DHT22;26216;53.724;9.898;2022-12-18T09:25:38;-2.70;96.60
40516;DHT22;26216;53.724;9.898;2022-12-18T09:28:18;-2.60;96.60
40516;DHT22;26216;53.724;9.898;2022-12-18T09:30:49;-2.60;96.60
40516;DHT22;26216;53.724;9.898;2022-12-18T09:33:16;-2.50;96.70
40516;DHT22;26216;53.724;9.898;2022-12-18T09:35:44;-2.40;96.70
40516;DHT22;26216;53.724;9.898;2022-12-18T09:38:16;-2.40;96.70
40516;DHT22;26216;53.724;9.898;2022-12-18T09:40:48;-2.30;96.80
40516;DHT22;26216;53.724;9.898;2022-12-18T09:43:26;-2.20;96.80
40516;DHT22;26216;53.724;9.898;2022-12-18T09:45:59;-2.20;96.70
40516;DHT22;26216;53.724;9.898;2022-12-18T09:48:30;-2.10;96.70
40516;DHT22;26216;53.724;9.898;2022-12-18T09:51:09;-2.00;96.70
40516;DHT22;26216;53.724;9.898;2022-12-18T09:53:38;-1.90;96.80
40516;DHT22;26216;53.724;9.898;2022-12-18T09:56:12;-1.90;96.80
40516;DHT22;26216;53.724;9.898;2022-12-18T09:58:58;-1.80;96.80
40516;DHT22;26216;53.724;9.898;2022-12-18T10:01:25;-1.70;96.80
40516;DHT22;26216;53.724;9.898;2022-12-18T10:03:53;-1.70;96.80
40516;DHT22;26216;53.724;9.898;2022-12-18T10:12:05;-1.50;96.80
40516;DHT22;26216;53.724;9.898;2022-12-18T10:17:35;-1.30;96.80
40516;DHT22;26216;53.724;9.898;2022-12-18T10:23:33;-1.20;96.80
40516;DHT22;26216;53.724;9.898;2022-12-18T10:26:05;-1.10;96.80
40516;DHT22;26216;53.724;9.898;2022-12-18T10:28:33;-1.10;96.80
40516;DHT22;26216;53.724;9.898;2022-12-18T10:31:01;-1.00;96.70
40516;DHT22;26216;53.724;9.898;2022-12-18T10:33:31;-0.90;96.70
40516;DHT22;26216;53.724;9.898;2022-12-18T10:35:57;-0.90;96.70
40516;DHT22;26216;53.724;9.898;2022-12-18T10:38:29;-0.80;96.70
40516;DHT22;26216;53.724;9.898;2022-12-18T10:41:26;-0.70;96.70
40516;DHT22;26216;53.724;9.898;2022-12-18T10:44:15;-0.70;96.60
40516;DHT22;26216;53.724;9.898;2022-12-18T10:46:42;-0.60;96.50
40516;DHT22;26216;53.724;9.898;2022-12-18T10:49:19;-0.60;96.50
40516;DHT22;26216;53.724;9.898;2022-12-18T10:51:47;-0.50;96.60
40516;DHT22;26216;53.724;9.898;2022-12-18T10:54:19;-0.40;96.60
40516;DHT22;26216;53.724;9.898;2022-12-18T10:56:47;-0.40;96.60
40516;DHT22;26216;53.724;9.898;2022-12-18T10:59:15;-0.30;96.60
40516;DHT22;26216;53.724;9.898;2022-12-18T11:01:52;-0.20;96.60
40516;DHT22;26216;53.724;9.898;2022-12-18T11:04:25;-0.20;96.60
40516;DHT22;26216;53.724;9.898;2022-12-18T11:06:56;-0.10;96.60
40516;DHT22;26216;53.724;9.898;2022-12-18T11:09:27;0.00;96.50
40516;DHT22;26216;53.724;9.898;2022-12-18T11:11:56;0.00;96.60
40516;DHT22;26216;53.724;9.898;2022-12-18T11:14:32;0.10;96.50
40516;DHT22;26216;53.724;9.898;2022-12-18T11:17:00;0.20;96.50
40516;DHT22;26216;53.724;9.898;2022-12-18T11:19:37;0.20;96.50
40516;DHT22;26216;53.724;9.898;2022-12-18T11:22:23;0.30;96.40
40516;DHT22;26216;53.724;9.898;2022-12-18T11:24:58;0.40;96.20
40516;DHT22;26216;53.724;9.898;2022-12-18T11:27:25;0.40;96.10
40516;DHT22;26216;53.724;9.898;2022-12-18T11:29:51;0.50;96.10
40516;DHT22;26216;53.724;9.898;2022-12-18T11:32:37;0.50;95.90
40516;DHT22;26216;53.724;9.898;2022-12-18T11:35:20;0.60;95.90
40516;DHT22;26216;53.724;9.898;2022-12-18T11:37:59;0.70;95.70
40516;DHT22;26216;53.724;9.898;2022-12-18T11:40:36;0.70;95.70
40516;DHT22;26216;53.724;9.898;2022-12-18T11:43:13;0.70;95.80
40516;DHT22;26216;53.724;9.898;2022-12-18T11:45:53;0.80;95.80
40516;DHT22;26216;53.724;9.898;2022-12-18T11:48:37;0.80;95.80
40516;DHT22;26216;53.724;9.898;2022-12-18T11:51:08;0.90;95.70
40516;DHT22;26216;53.724;9.898;2022-12-18T11:53:36;0.90;95.60
40516;DHT22;26216;53.724;9.898;2022-12-18T11:56:32;1.00;95.50
40516;DHT22;26216;53.724;9.898;2022-12-18T12:01:55;1.00;95.40
40516;DHT22;26216;53.724;9.898;2022-12-18T12:04:42;1.00;95.50
40516;DHT22;26216;53.724;9.898;2022-12-18T12:10:27;1.10;95.20
40516;DHT22;26216;53.724;9.898;2022-12-18T12:13:32;1.10;95.00
40516;DHT22;26216;53.724;9.898;2022-12-18T12:19:59;1.10;94.80
40516;DHT22;26216;53.724;9.898;2022-12-18T12:22:03;1.10;94.70
40516;DHT22;26216;53.724;9.898;2022-12-18T12:35:00;1.10;94.70
40516;DHT22;26216;53.724;9.898;2022-12-18T12:37:48;1.10;94.70
40516;DHT22;26216;53.724;9.898;2022-12-18T12:40:18;1.10;94.60
40516;DHT22;26216;53.724;9.898;2022-12-18T12:42:55;1.10;94.60
40516;DHT22;26216;53.724;9.898;2022-12-18T12:45:44;1.20;94.60
40516;DHT22;26216;53.724;9.898;2022-12-18T12:51:23;1.20;94.30
40516;DHT22;26216;53.724;9.898;2022-12-18T12:53:50;1.20;94.40
40516;DHT22;26216;53.724;9.898;2022-12-18T12:56:19;1.10;94.50
40516;DHT22;26216;53.724;9.898;2022-12-18T13:02:11;1.10;94.50
40516;DHT22;26216;53.724;9.898;2022-12-18T13:04:48;1.20;94.60
40516;DHT22;26216;53.724;9.898;2022-12-18T13:07:29;1.20;94.60
40516;DHT22;26216;53.724;9.898;2022-12-18T13:12:56;1.20;94.50
40516;DHT22;26216;53.724;9.898;2022-12-18T13:20:46;1.30;94.60
40516;DHT22;26216;53.724;9.898;2022-12-18T13:23:39;1.30;94.60
40516;DHT22;26216;53.724;9.898;2022-12-18T13:36:42;1.40;94.20
40516;DHT22;26216;53.724;9.898;2022-12-18T13:41:40;1.30;94.10
40516;DHT22;26216;53.724;9.898;2022-12-18T13:44:32;1.30;94.00
40516;DHT22;26216;53.724;9.898;2022-12-18T13:46:58;1.30;93.90
40516;DHT22;26216;53.724;9.898;2022-12-18T13:49:40;1.20;93.70
40516;DHT22;26216;53.724;9.898;2022-12-18T13:52:19;1.30;93.90
40516;DHT22;26216;53.724;9.898;2022-12-18T13:54:51;1.20;93.90
40516;DHT22;26216;53.724;9.898;2022-12-18T13:57:36;1.20;93.80
40516;DHT22;26216;53.724;9.898;2022-12-18T14:00:32;1.10;93.60
40516;DHT22;26216;53.724;9.898;2022-12-18T14:02:59;1.10;93.60
40516;DHT22;26216;53.724;9.898;2022-12-18T14:05:26;1.10;93.70
40516;DHT22;26216;53.724;9.898;2022-12-18T14:07:53;1.00;93.70
40516;DHT22;26216;53.724;9.898;2022-12-18T14:10:21;1.00;93.70
40516;DHT22;26216;53.724;9.898;2022-12-18T14:12:49;1.00;93.50
40516;DHT22;26216;53.724;9.898;2022-12-18T14:15:33;0.90;93.40
40516;DHT22;26216;53.724;9.898;2022-12-18T14:20:44;0.90;93.50
40516;DHT22;26216;53.724;9.898;2022-12-18T14:23:40;0.90;93.50
40516;DHT22;26216;53.724;9.898;2022-12-18T14:26:38;0.80;93.40
40516;DHT22;26216;53.724;9.898;2022-12-18T14:29:22;0.80;93.40
40516;DHT22;26216;53.724;9.898;2022-12-18T14:32:09;0.80;93.20
40516;DHT22;26216;53.724;9.898;2022-12-18T14:34:36;0.70;93.30
40516;DHT22;26216;53.724;9.898;2022-12-18T14:37:03;0.60;93.40
40516;DHT22;26216;53.724;9.898;2022-12-18T14:39:29;0.60;93.40
40516;DHT22;26216;53.724;9.898;2022-12-18T14:41:55;0.60;93.40
40516;DHT22;26216;53.724;9.898;2022-12-18T14:44:21;0.50;93.40
40516;DHT22;26216;53.724;9.898;2022-12-18T14:46:49;0.50;93.40
40516;DHT22;26216;53.724;9.898;2022-12-18T14:49:31;0.50;93.60
40516;DHT22;26216;53.724;9.898;2022-12-18T14:52:06;0.40;93.60
40516;DHT22;26216;53.724;9.898;2022-12-18T14:54:34;0.40;93.70
40516;DHT22;26216;53.724;9.898;2022-12-18T14:57:33;0.40;93.70
40516;DHT22;26216;53.724;9.898;2022-12-18T15:00:19;0.30;93.60
40516;DHT22;26216;53.724;9.898;2022-12-18T15:02:53;0.30;93.60
40516;DHT22;26216;53.724;9.898;2022-12-18T15:07:49;0.30;93.60
40516;DHT22;26216;53.724;9.898;2022-12-18T15:10:30;0.20;93.60
40516;DHT22;26216;53.724;9.898;2022-12-18T15:18:04;0.10;93.60
40516;DHT22;26216;53.724;9.898;2022-12-18T15:20:43;0.10;93.70
40516;DHT22;26216;53.724;9.898;2022-12-18T15:23:25;0.00;93.60
40516;DHT22;26216;53.724;9.898;2022-12-18T15:28:43;0.00;93.80
40516;DHT22;26216;53.724;9.898;2022-12-18T15:36:10;-0.10;93.80
40516;DHT22;26216;53.724;9.898;2022-12-18T15:38:37;-0.10;93.90
40516;DHT22;26216;53.724;9.898;2022-12-18T15:41:11;-0.20;93.90
40516;DHT22;26216;53.724;9.898;2022-12-18T15:43:41;-0.20;93.90
40516;DHT22;26216;53.724;9.898;2022-12-18T15:46:16;-0.20;94.00
40516;DHT22;26216;53.724;9.898;2022-12-18T15:48:46;-0.20;94.00
40516;DHT22;26216;53.724;9.898;2022-12-18T15:53:43;-0.30;94.20
40516;DHT22;26216;53.724;9.898;2022-12-18T15:56:14;-0.30;94.20
40516;DHT22;26216;53.724;9.898;2022-12-18T15:58:59;-0.30;94.30
40516;DHT22;26216;53.724;9.898;2022-12-18T16:01:30;-0.30;94.40
40516;DHT22;26216;53.724;9.898;2022-12-18T16:04:01;-0.30;94.50
40516;DHT22;26216;53.724;9.898;2022-12-18T16:06:27;-0.30;94.50
40516;DHT22;26216;53.724;9.898;2022-12-18T16:08:54;-0.30;94.50
40516;DHT22;26216;53.724;9.898;2022-12-18T16:11:26;-0.30;94.50
40516;DHT22;26216;53.724;9.898;2022-12-18T16:14:23;-0.30;94.60
40516;DHT22;26216;53.724;9.898;2022-12-18T16:16:58;-0.30;94.60
40516;DHT22;26216;53.724;9.898;2022-12-18T16:19:25;-0.30;94.70
40516;DHT22;26216;53.724;9.898;2022-12-18T16:21:54;-0.30;94.70
40516;DHT22;26216;53.724;9.898;2022-12-18T16:24:23;-0.20;94.80
40516;DHT22;26216;53.724;9.898;2022-12-18T16:26:52;-0.20;94.80
40516;DHT22;26216;53.724;9.898;2022-12-18T16:29:19;-0.20;94.80
40516;DHT22;26216;53.724;9.898;2022-12-18T16:31:58;-0.20;94.80
40516;DHT22;26216;53.724;9.898;2022-12-18T16:34:31;-0.20;94.80
40516;DHT22;26216;53.724;9.898;2022-12-18T16:37:06;-0.20;94.90
40516;DHT22;26216;53.724;9.898;2022-12-18T16:39:33;-0.20;94.90
40516;DHT22;26216;53.724;9.898;2022-12-18T16:42:01;-0.20;94.90
40516;DHT22;26216;53.724;9.898;2022-12-18T16:44:27;-0.20;94.90
40516;DHT22;26216;53.724;9.898;2022-12-18T16:46:54;-0.20;94.90
40516;DHT22;26216;53.724;9.898;2022-12-18T16:49:20;-0.10;94.90
40516;DHT22;26216;53.724;9.898;2022-12-18T16:51:47;-0.10;94.90
40516;DHT22;26216;53.724;9.898;2022-12-18T16:54:15;-0.20;94.80
40516;DHT22;26216;53.724;9.898;2022-12-18T16:56:41;-0.10;94.90
40516;DHT22;26216;53.724;9.898;2022-12-18T16:59:10;-0.20;94.80
40516;DHT22;26216;53.724;9.898;2022-12-18T17:01:38;-0.20;94.80
40516;DHT22;26216;53.724;9.898;2022-12-18T17:04:08;-0.20;94.80
40516;DHT22;26216;53.724;9.898;2022-12-18T17:06:38;-0.20;94.90
40516;DHT22;26216;53.724;9.898;2022-12-18T17:09:07;-0.10;94.90
40516;DHT22;26216;53.724;9.898;2022-12-18T17:11:35;-0.20;94.90
40516;DHT22;26216;53.724;9.898;2022-12-18T17:14:11;-0.20;94.80
40516;DHT22;26216;53.724;9.898;2022-12-18T17:16:38;-0.20;94.90
40516;DHT22;26216;53.724;9.898;2022-12-18T17:19:05;-0.20;94.80
40516;DHT22;26216;53.724;9.898;2022-12-18T17:21:33;-0.20;94.90
40516;DHT22;26216;53.724;9.898;2022-12-18T17:24:00;-0.30;94.80
40516;DHT22;26216;53.724;9.898;2022-12-18T17:26:28;-0.20;94.90
40516;DHT22;26216;53.724;9.898;2022-12-18T17:28:56;-0.20;94.90
40516;DHT22;26216;53.724;9.898;2022-12-18T17:31:26;-0.20;94.90
40516;DHT22;26216;53.724;9.898;2022-12-18T17:33:53;-0.30;94.90
40516;DHT22;26216;53.724;9.898;2022-12-18T17:36:21;-0.30;95.00